Time;durP1;ratioP1;P1;durP2;ratioP2;P2;SDS_P1;SDS_P2;PMS_P1;PMS_P2;Temp;Humidity;BMP_temperature;BMP_pressure;BME280_temperature;BME280_humidity;BME280_pressure;Samples;Min_cycle;Max_cycle;Signal;HPM_P1;HPM_P2
2021/06/03 00:00:37;;;;;;;2.53;1.80;;;23.40;47.70;;;;;;5032900;28;20517;-84
2021/06/03 00:03:04;;;;;;;2.33;2.10;;;23.40;47.70;;;;;;5024291;28;20414;-84
2021/06/03 00:05:36;;;;;;;2.20;1.90;;;23.40;47.70;;;;;;5032672;28;20434;-84
2021/06/03 00:08:02;;;;;;;2.57;1.80;;;23.40;47.70;;;;;;5032966;28;20407;-84
2021/06/03 00:10:34;;;;;;;2.37;2.10;;;23.40;47.70;;;;;;5032195;28;20448;-84
2021/06/03 00:13:00;;;;;;;2.23;1.67;;;23.40;47.60;;;;;;5032086;28;20422;-84
2021/06/03 00:15:30;;;;;;;1.97;1.77;;;23.40;47.60;;;;;;5032165;28;20506;-84
2021/06/03 00:17:56;;;;;;;2.33;2.00;;;23.40;47.60;;;;;;5032473;28;20423;-84
2021/06/03 00:20:26;;;;;;;5.03;3.07;;;23.40;47.60;;;;;;5050394;28;20398;-84
2021/06/03 00:22:52;;;;;;;2.30;1.90;;;23.50;47.70;;;;;;5032592;28;20461;-84
2021/06/03 00:25:19;;;;;;;3.80;2.37;;;23.50;47.60;;;;;;5050381;28;20398;-84
2021/06/03 00:27:45;;;;;;;4.00;2.20;;;23.50;47.60;;;;;;5032470;28;20433;-84
2021/06/03 00:30:12;;;;;;;3.30;2.00;;;23.50;47.60;;;;;;5050360;28;20414;-84
2021/06/03 00:32:38;;;;;;;1.60;1.37;;;23.50;47.60;;;;;;5050505;28;20428;-84
2021/06/03 00:35:08;;;;;;;2.40;1.60;;;23.50;47.60;;;;;;5033396;28;20402;-84
2021/06/03 00:37:35;;;;;;;2.70;1.73;;;23.50;47.60;;;;;;5033407;28;20486;-84
2021/06/03 00:40:05;;;;;;;1.93;1.73;;;23.50;47.60;;;;;;5033097;28;20406;-84
2021/06/03 00:42:31;;;;;;;1.77;1.67;;;23.50;47.50;;;;;;5033534;28;20409;-83
2021/06/03 00:44:57;;;;;;;2.10;2.00;;;23.50;47.50;;;;;;5032546;28;20426;-84
2021/06/03 00:47:23;;;;;;;2.20;1.63;;;23.60;47.60;;;;;;5050074;28;20414;-84
2021/06/03 00:49:49;;;;;;;2.50;2.00;;;23.50;47.50;;;;;;5032742;28;20186;-84
2021/06/03 00:52:15;;;;;;;2.53;2.00;;;23.60;47.60;;;;;;5049580;28;20194;-84
2021/06/03 00:54:41;;;;;;;2.80;2.27;;;23.60;47.50;;;;;;5047024;28;20431;-84
2021/06/03 00:57:07;;;;;;;2.03;1.77;;;23.60;47.50;;;;;;5031078;28;20485;-84
2021/06/03 00:59:33;;;;;;;2.70;1.97;;;23.60;47.60;;;;;;5030905;28;20478;-84
2021/06/03 01:01:59;;;;;;;2.47;2.27;;;23.50;47.50;;;;;;5046356;28;20168;-84
2021/06/03 01:04:26;;;;;;;1.70;1.60;;;23.50;47.60;;;;;;5047558;28;20168;-84
2021/06/03 01:06:52;;;;;;;1.83;1.73;;;23.50;47.60;;;;;;5030176;28;20521;-84
2021/06/03 01:09:28;;;;;;;3.03;2.20;;;23.50;47.60;;;;;;5048167;28;20422;-84
2021/06/03 01:12:08;;;;;;;2.07;1.60;;;23.50;47.60;;;;;;5048270;28;20391;-84
2021/06/03 01:14:44;;;;;;;2.27;1.80;;;23.50;47.60;;;;;;5027248;28;20422;-84
2021/06/03 01:17:10;;;;;;;2.10;1.70;;;23.50;47.70;;;;;;5030443;28;20449;-84
2021/06/03 01:19:42;;;;;;;2.53;1.70;;;23.50;47.70;;;;;;5048081;28;20419;-84
2021/06/03 01:22:12;;;;;;;2.93;2.37;;;23.50;47.70;;;;;;5029788;28;20422;-84
2021/06/03 01:24:44;;;;;;;1.90;1.53;;;23.50;47.70;;;;;;5031246;28;20410;-84
2021/06/03 01:27:12;;;;;;;2.00;1.80;;;23.40;47.60;;;;;;5035413;28;20410;-84
2021/06/03 01:29:54;;;;;;;2.37;1.50;;;23.50;47.80;;;;;;5034860;28;20428;-84
2021/06/03 01:32:21;;;;;;;3.13;2.00;;;23.40;47.70;;;;;;5034317;28;20502;-84
2021/06/03 01:34:49;;;;;;;2.10;1.90;;;23.40;47.70;;;;;;5033592;28;20430;-84
2021/06/03 01:37:15;;;;;;;2.10;1.90;;;23.40;47.70;;;;;;5034759;28;20469;-84
2021/06/03 01:39:44;;;;;;;2.13;1.60;;;23.40;47.70;;;;;;5034310;28;20414;-84
2021/06/03 01:42:10;;;;;;;2.17;1.90;;;23.40;47.70;;;;;;5033642;28;20418;-84
2021/06/03 01:44:37;;;;;;;2.10;1.67;;;23.40;47.70;;;;;;5050091;28;20433;-84
2021/06/03 01:47:06;;;;;;;2.07;1.50;;;23.40;47.70;;;;;;5031833;28;20430;-84
2021/06/03 01:49:33;;;;;;;3.17;2.10;;;23.40;47.80;;;;;;5049050;28;20418;-84
2021/06/03 01:52:03;;;;;;;2.27;1.73;;;23.40;47.70;;;;;;5031902;28;20449;-84
2021/06/03 01:54:30;;;;;;;1.87;1.73;;;23.40;47.80;;;;;;5031846;28;20784;-84
2021/06/03 01:56:56;;;;;;;1.87;1.73;;;23.40;47.80;;;;;;5032126;28;20959;-84
2021/06/03 01:59:22;;;;;;;1.50;1.40;;;23.40;47.80;;;;;;5032841;28;20460;-84
2021/06/03 02:01:49;;;;;;;1.70;1.60;;;23.40;47.80;;;;;;5032144;28;20418;-84
2021/06/03 02:04:15;;;;;;;2.33;1.60;;;23.40;47.80;;;;;;5050790;28;20168;-82
2021/06/03 02:06:42;;;;;;;2.23;1.80;;;23.40;47.90;;;;;;5033604;28;20406;-82
2021/06/03 02:09:09;;;;;;;2.30;1.60;;;23.40;47.80;;;;;;5051497;28;20401;-83
2021/06/03 02:11:40;;;;;;;2.43;2.20;;;23.40;47.80;;;;;;5033650;28;20414;-81
2021/06/03 02:14:09;;;;;;;1.70;1.50;;;23.40;47.80;;;;;;5033304;28;20402;-82
2021/06/03 02:16:48;;;;;;;2.07;1.30;;;23.40;47.80;;;;;;5034662;28;20490;-82
2021/06/03 02:19:22;;;;;;;1.70;1.40;;;23.40;47.80;;;;;;5055125;28;20413;-82
2021/06/03 02:21:49;;;;;;;2.63;1.80;;;23.40;47.80;;;;;;5055517;28;20401;-82
2021/06/03 02:24:16;;;;;;;2.20;1.50;;;23.40;47.80;;;;;;5037774;28;20442;-82
2021/06/03 02:26:44;;;;;;;3.67;2.00;;;23.40;47.80;;;;;;5039748;28;20419;-82
2021/06/03 02:29:11;;;;;;;1.97;1.77;;;23.40;47.80;;;;;;5056683;28;20802;-82
2021/06/03 02:31:38;;;;;;;1.93;1.60;;;23.40;47.80;;;;;;5056318;28;20409;-82
2021/06/03 02:34:05;;;;;;;1.93;1.67;;;23.30;47.70;;;;;;5056131;28;20406;-81
2021/06/03 02:36:31;;;;;;;1.63;1.30;;;23.40;47.80;;;;;;5037824;28;20458;-82
2021/06/03 02:38:57;;;;;;;2.70;1.43;;;23.40;47.80;;;;;;5038477;28;20489;-81
2021/06/03 02:41:23;;;;;;;1.90;1.60;;;23.40;47.80;;;;;;5055654;28;20485;-81
2021/06/03 02:43:50;;;;;;;2.40;2.20;;;23.40;47.80;;;;;;5055149;28;20465;-81
2021/06/03 02:46:20;;;;;;;3.37;2.17;;;23.40;47.80;;;;;;5037196;28;20414;-81
2021/06/03 02:48:49;;;;;;;1.70;1.40;;;23.40;47.80;;;;;;5037026;28;20430;-81
2021/06/03 02:51:16;;;;;;;1.83;1.53;;;23.40;47.80;;;;;;5037476;28;20430;-81
2021/06/03 02:53:44;;;;;;;2.70;1.73;;;23.40;47.80;;;;;;5037202;28;20441;-81
2021/06/03 02:56:10;;;;;;;2.63;1.50;;;23.40;47.80;;;;;;5037058;28;20480;-81
2021/06/03 02:58:36;;;;;;;1.70;1.60;;;23.40;47.80;;;;;;5036775;28;20423;-81
2021/06/03 03:01:02;;;;;;;1.70;1.40;;;23.40;47.80;;;;;;5036854;28;20436;-82
2021/06/03 03:03:28;;;;;;;1.57;1.40;;;23.40;47.80;;;;;;5053465;28;20537;-82
2021/06/03 03:05:57;;;;;;;3.10;1.40;;;23.40;47.90;;;;;;5036459;28;20422;-82
2021/06/03 03:08:23;;;;;;;1.80;1.47;;;23.40;47.80;;;;;;5036519;28;20180;-82
2021/06/03 03:10:54;;;;;;;1.57;1.47;;;23.40;47.90;;;;;;5037088;28;20429;-82
2021/06/03 03:13:21;;;;;;;2.00;1.80;;;23.40;47.90;;;;;;5037024;28;20179;-83
2021/06/03 03:15:47;;;;;;;2.53;1.57;;;23.40;47.90;;;;;;5036536;28;20418;-82
2021/06/03 03:18:13;;;;;;;1.80;1.60;;;23.40;47.90;;;;;;5054117;28;20470;-82
2021/06/03 03:20:43;;;;;;;2.20;1.67;;;23.40;47.90;;;;;;5035349;28;20415;-82
2021/06/03 03:23:11;;;;;;;1.57;1.30;;;23.40;47.90;;;;;;5035892;28;20171;-82
2021/06/03 03:25:38;;;;;;;2.50;1.70;;;23.40;47.90;;;;;;5036981;28;20482;-82
2021/06/03 03:28:05;;;;;;;1.97;1.77;;;23.40;47.90;;;;;;5035807;28;20419;-82
2021/06/03 03:30:33;;;;;;;1.83;1.67;;;23.40;47.90;;;;;;5035541;28;20908;-82
2021/06/03 03:32:59;;;;;;;2.17;1.73;;;23.40;47.90;;;;;;5035684;28;20417;-82
2021/06/03 03:35:25;;;;;;;2.20;1.60;;;23.40;47.90;;;;;;5052544;28;20473;-82
2021/06/03 03:37:51;;;;;;;1.93;1.60;;;23.40;47.90;;;;;;5036379;28;20194;-82
2021/06/03 03:40:21;;;;;;;1.77;1.50;;;23.40;47.90;;;;;;5036046;28;20593;-82
2021/06/03 03:42:47;;;;;;;1.93;1.60;;;23.40;47.90;;;;;;5035360;28;20414;-82
2021/06/03 03:45:18;;;;;;;2.07;1.60;;;23.40;47.90;;;;;;5052969;28;20426;-82
2021/06/03 03:47:44;;;;;;;2.13;1.50;;;23.40;47.90;;;;;;5053154;28;20414;-82
2021/06/03 03:50:11;;;;;;;2.40;1.50;;;23.40;47.90;;;;;;5052938;28;20446;-82
2021/06/03 03:52:41;;;;;;;1.77;1.67;;;23.40;47.90;;;;;;5034959;28;20414;-82
2021/06/03 03:55:09;;;;;;;1.97;1.23;;;23.40;47.90;;;;;;5035326;28;20426;-82
2021/06/03 03:57:36;;;;;;;2.23;1.70;;;23.40;47.90;;;;;;5018803;28;20558;-82
2021/06/03 04:00:06;;;;;;;1.60;1.40;;;23.40;47.90;;;;;;5035038;28;20418;-82
2021/06/03 04:02:32;;;;;;;1.70;1.50;;;23.40;47.90;;;;;;5035269;28;20418;-83
2021/06/03 04:04:58;;;;;;;2.37;1.73;;;23.40;47.90;;;;;;5051765;28;20429;-83
2021/06/03 04:07:24;;;;;;;4.10;1.67;;;23.40;47.90;;;;;;5035286;28;20176;-83
2021/06/03 04:09:50;;;;;;;2.50;1.77;;;23.40;47.90;;;;;;5035217;28;20551;-82
2021/06/03 04:12:17;;;;;;;1.80;1.50;;;23.40;47.90;;;;;;5052477;28;20176;-82
2021/06/03 04:14:43;;;;;;;2.07;1.40;;;23.40;47.90;;;;;;5035290;28;20176;-83
2021/06/03 04:17:09;;;;;;;2.47;1.47;;;23.50;47.90;;;;;;5034829;28;20450;-82
2021/06/03 04:19:37;;;;;;;1.53;1.43;;;23.50;47.90;;;;;;5035326;28;20179;-82
2021/06/03 04:22:03;;;;;;;1.73;1.50;;;23.50;47.90;;;;;;5052509;28;20176;-83
2021/06/03 04:24:29;;;;;;;1.33;1.23;;;23.50;47.90;;;;;;5018217;28;20410;-82
2021/06/03 04:26:55;;;;;;;2.47;1.87;;;23.50;47.90;;;;;;5035002;28;20474;-83
2021/06/03 04:29:21;;;;;;;1.60;1.50;;;23.50;47.90;;;;;;5035018;28;20506;-82
2021/06/03 04:31:50;;;;;;;1.53;1.30;;;23.50;47.90;;;;;;5052397;28;20477;-83
2021/06/03 04:34:15;;;;;;;1.73;1.50;;;23.60;48.00;;;;;;5034783;28;20199;-82
2021/06/03 04:36:41;;;;;;;1.67;1.23;;;23.60;47.90;;;;;;5052248;28;20492;-82
2021/06/03 04:39:08;;;;;;;1.50;1.40;;;23.60;48.50;;;;;;5051658;28;20199;-82
2021/06/03 04:41:34;;;;;;;2.30;1.37;;;23.60;47.90;;;;;;5034058;28;20517;-83
2021/06/03 04:44:00;;;;;;;3.10;1.70;;;23.60;47.80;;;;;;5034826;28;20497;-82
2021/06/03 04:46:26;;;;;;;2.43;1.70;;;23.60;47.80;;;;;;5034573;28;20487;-83
2021/06/03 04:48:52;;;;;;;2.00;1.80;;;23.60;47.80;;;;;;5034333;28;20457;-83
2021/06/03 04:51:18;;;;;;;1.80;1.60;;;23.70;47.80;;;;;;5034646;28;20418;-82
2021/06/03 04:53:46;;;;;;;1.40;1.30;;;23.70;47.80;;;;;;5052019;28;20182;-82
2021/06/03 04:56:12;;;;;;;1.80;1.60;;;23.70;47.80;;;;;;5034754;28;20465;-83
2021/06/03 04:58:38;;;;;;;1.80;1.60;;;23.70;47.80;;;;;;5034877;28;20430;-82
2021/06/03 05:01:06;;;;;;;2.20;1.50;;;23.70;47.80;;;;;;5033727;28;20430;-83
2021/06/03 05:03:33;;;;;;;1.93;1.77;;;23.70;47.70;;;;;;5034377;28;20433;-82
2021/06/03 05:05:59;;;;;;;2.10;1.57;;;23.70;47.70;;;;;;5034088;28;20423;-82
2021/06/03 05:08:25;;;;;;;1.60;1.50;;;23.70;47.70;;;;;;5034023;28;20421;-82
2021/06/03 05:10:51;;;;;;;1.50;1.30;;;23.70;47.70;;;;;;5033821;28;20255;-83
2021/06/03 05:13:17;;;;;;;1.80;1.50;;;23.70;47.70;;;;;;5033879;28;20415;-82
2021/06/03 05:15:43;;;;;;;1.97;1.60;;;23.80;47.80;;;;;;5051663;28;20182;-83
2021/06/03 05:18:08;;;;;;;1.93;1.60;;;23.80;47.80;;;;;;5067280;28;20182;-83
2021/06/03 05:20:37;;;;;;;2.73;1.97;;;23.80;47.80;;;;;;5034285;28;20172;-82
2021/06/03 05:23:03;;;;;;;1.87;1.50;;;23.80;47.70;;;;;;5035145;28;20172;-82
2021/06/03 05:25:32;;;;;;;1.93;1.20;;;23.80;47.80;;;;;;5034867;28;20414;-82
2021/06/03 05:27:59;;;;;;;1.43;1.33;;;23.80;47.80;;;;;;5035084;28;20429;-82
2021/06/03 05:30:25;;;;;;;1.57;1.47;;;23.80;47.80;;;;;;5034382;28;20915;-82
2021/06/03 05:32:51;;;;;;;1.80;1.50;;;23.80;47.80;;;;;;5034359;28;20418;-82
2021/06/03 05:35:21;;;;;;;1.50;1.40;;;23.80;47.80;;;;;;5034924;28;20418;-82
2021/06/03 05:37:48;;;;;;;2.37;1.53;;;23.80;47.80;;;;;;5034278;28;20471;-82
2021/06/03 05:40:17;;;;;;;1.80;1.60;;;23.80;47.80;;;;;;5034161;28;20406;-82
2021/06/03 05:42:44;;;;;;;1.70;1.60;;;23.80;47.70;;;;;;5034298;28;20414;-82
2021/06/03 05:45:13;;;;;;;1.60;1.30;;;23.90;47.80;;;;;;5034486;28;20457;-82
2021/06/03 05:47:40;;;;;;;1.87;1.57;;;23.90;47.80;;;;;;5051889;28;20911;-84
2021/06/03 05:50:09;;;;;;;2.67;1.70;;;23.90;47.80;;;;;;5052209;28;20441;-81
2021/06/03 05:52:38;;;;;;;2.17;1.73;;;23.90;47.80;;;;;;5038988;28;20419;-81
2021/06/03 05:55:06;;;;;;;1.40;1.30;;;23.90;47.80;;;;;;5056365;28;20406;-81
2021/06/03 05:57:35;;;;;;;1.50;1.40;;;23.90;47.80;;;;;;5038521;28;20465;-81
2021/06/03 06:00:05;;;;;;;1.83;1.63;;;23.90;47.80;;;;;;5038524;28;20415;-82
2021/06/03 06:02:49;;;;;;;1.60;1.40;;;23.90;47.80;;;;;;5039143;28;20474;-81
2021/06/03 06:08:02;;;;;;;1.30;1.13;;;23.90;47.80;;;;;;5055605;28;20397;-82
2021/06/03 06:10:29;;;;;;;1.70;1.50;;;23.90;47.90;;;;;;5037679;28;20418;-82
2021/06/03 06:12:55;;;;;;;2.00;1.77;;;23.90;47.90;;;;;;5038089;28;20755;-82
2021/06/03 06:15:21;;;;;;;1.70;1.40;;;23.90;47.90;;;;;;5037809;28;20423;-82
2021/06/03 06:17:47;;;;;;;2.03;1.67;;;23.90;48.50;;;;;;5055446;28;20449;-82
2021/06/03 06:20:20;;;;;;;1.70;1.60;;;23.90;47.90;;;;;;5056606;28;20168;-82
2021/06/03 06:22:46;;;;;;;2.37;1.60;;;23.90;48.00;;;;;;5071487;28;20422;-82
2021/06/03 06:25:12;;;;;;;2.13;1.93;;;23.90;47.90;;;;;;5071980;28;20414;-81
2021/06/03 06:27:39;;;;;;;3.67;2.27;;;24.00;48.00;;;;;;5039276;28;20468;-83
2021/06/03 06:30:09;;;;;;;2.40;1.70;;;24.00;48.10;;;;;;5036827;28;20468;-81
2021/06/03 06:32:35;;;;;;;2.73;1.70;;;24.00;48.00;;;;;;5056195;28;20441;-81
2021/06/03 06:35:01;;;;;;;2.53;1.57;;;24.00;48.00;;;;;;5057188;28;20449;-81
2021/06/03 06:37:31;;;;;;;2.50;1.90;;;23.90;48.00;;;;;;5058100;28;20528;-81
2021/06/03 06:40:02;;;;;;;2.90;2.20;;;23.90;47.70;;;;;;5075241;28;20156;-81
2021/06/03 06:42:31;;;;;;;3.90;2.20;;;24.00;48.10;;;;;;5039065;28;20411;-83
2021/06/03 06:45:00;;;;;;;6.53;2.20;;;24.00;48.10;;;;;;5034931;28;20418;-81
2021/06/03 06:47:26;;;;;;;3.17;2.10;;;24.00;48.10;;;;;;5036940;28;20436;-81
2021/06/03 06:49:55;;;;;;;2.97;2.17;;;24.00;48.20;;;;;;5036834;28;20398;-81
2021/06/03 07:09:23;;;;;;;2.60;1.70;;;24.00;48.70;;;;;;4976185;28;20440;-80
2021/06/03 07:11:50;;;;;;;2.33;1.93;;;24.00;48.80;;;;;;4977152;29;20414;-81
2021/06/03 07:14:17;;;;;;;3.80;2.40;;;24.00;48.80;;;;;;4978388;29;20428;-81
2021/06/03 07:16:43;;;;;;;2.10;1.90;;;24.00;48.80;;;;;;4978489;29;20478;-81
2021/06/03 07:19:09;;;;;;;4.07;1.73;;;24.00;48.70;;;;;;4968625;29;21006;-80
2021/06/03 07:21:37;;;;;;;2.57;2.20;;;24.10;48.80;;;;;;4968898;29;20177;-82
2021/06/03 07:24:08;;;;;;;2.20;1.70;;;24.10;48.80;;;;;;4952781;29;20202;-80
2021/06/03 07:26:34;;;;;;;2.10;1.90;;;24.10;48.70;;;;;;4967913;29;20528;-80
2021/06/03 07:29:04;;;;;;;2.13;1.90;;;24.10;48.70;;;;;;4951954;29;20426;-81
2021/06/03 07:31:35;;;;;;;1.70;1.60;;;24.10;48.70;;;;;;4967130;29;20429;-79
2021/06/03 07:34:05;;;;;;;2.67;1.97;;;24.10;48.70;;;;;;4951086;29;20799;-80
2021/06/03 07:36:32;;;;;;;2.00;1.80;;;24.20;48.70;;;;;;4948797;29;20471;-79
2021/06/03 07:39:01;;;;;;;2.40;1.87;;;24.10;48.70;;;;;;4948736;29;20909;-80
2021/06/03 07:41:27;;;;;;;1.70;1.50;;;24.20;48.80;;;;;;4961182;28;20426;-78
2021/06/03 07:43:53;;;;;;;3.60;1.83;;;24.20;48.80;;;;;;5048213;28;20429;-80
2021/06/03 07:46:19;;;;;;;1.77;1.60;;;24.20;48.70;;;;;;5050784;28;20508;-80
2021/06/03 07:48:46;;;;;;;2.40;2.00;;;24.20;48.70;;;;;;5067702;28;20174;-79
2021/06/03 07:51:13;;;;;;;1.60;1.50;;;24.20;48.70;;;;;;5067557;28;20416;-80
2021/06/03 07:53:39;;;;;;;1.70;1.60;;;24.20;48.80;;;;;;5067390;28;20431;-80
2021/06/03 07:56:07;;;;;;;2.50;1.80;;;24.20;48.80;;;;;;5050134;28;20477;-81
2021/06/03 07:58:33;;;;;;;2.10;1.60;;;24.30;48.90;;;;;;5050054;28;20410;-81
2021/06/03 08:00:59;;;;;;;2.50;2.20;;;24.30;48.80;;;;;;5050144;28;20796;-80
2021/06/03 08:03:26;;;;;;;2.20;1.60;;;24.30;48.90;;;;;;5067457;28;20417;-79
2021/06/03 08:05:52;;;;;;;3.13;2.10;;;24.30;48.80;;;;;;5050008;28;20425;-80
2021/06/03 08:08:18;;;;;;;1.93;1.70;;;24.30;48.80;;;;;;5050407;28;20417;-82
2021/06/03 08:10:46;;;;;;;1.80;1.60;;;24.30;48.80;;;;;;5067848;28;20437;-82
2021/06/03 08:13:12;;;;;;;2.90;2.07;;;24.30;48.80;;;;;;5068464;28;20202;-81
2021/06/03 08:15:43;;;;;;;1.80;1.70;;;24.30;48.80;;;;;;5067795;28;20437;-80
2021/06/03 08:18:10;;;;;;;2.03;1.83;;;24.30;48.70;;;;;;5067341;28;20473;-80
2021/06/03 08:20:41;;;;;;;2.17;1.60;;;24.30;48.70;;;;;;5048958;28;20410;-80
2021/06/03 08:23:08;;;;;;;2.80;1.60;;;24.40;48.80;;;;;;5049376;28;20524;-80
2021/06/03 08:25:35;;;;;;;3.60;1.80;;;24.30;48.70;;;;;;5049856;28;20764;-80
2021/06/03 08:28:01;;;;;;;2.77;1.80;;;24.40;48.80;;;;;;5051135;28;20451;-81
2021/06/03 08:30:27;;;;;;;2.00;1.60;;;24.40;48.80;;;;;;5050605;28;20572;-80
2021/06/03 08:32:56;;;;;;;1.77;1.50;;;24.40;48.80;;;;;;5050278;28;20428;-80
2021/06/03 08:35:24;;;;;;;2.10;1.70;;;24.40;48.80;;;;;;5066637;28;20418;-80
2021/06/03 08:37:55;;;;;;;1.60;1.50;;;24.40;48.80;;;;;;5069183;28;20453;-80
2021/06/03 08:40:27;;;;;;;1.83;1.57;;;24.40;48.80;;;;;;5050379;28;20425;-81
2021/06/03 08:42:55;;;;;;;5.83;1.40;;;24.40;48.80;;;;;;5069122;28;20410;-81
2021/06/03 08:45:26;;;;;;;2.00;1.43;;;24.40;48.80;;;;;;5051276;28;20442;-81
2021/06/03 08:47:59;;;;;;;1.73;1.57;;;24.40;48.80;;;;;;5050874;28;20508;-80
2021/06/03 08:50:28;;;;;;;1.60;1.50;;;24.40;48.80;;;;;;5052028;28;20504;-80
2021/06/03 08:52:55;;;;;;;2.10;1.63;;;24.40;48.80;;;;;;5068428;28;20769;-81
2021/06/03 08:58:09;;;;;;;2.37;1.60;;;24.50;48.80;;;;;;5067644;28;20449;-80
2021/06/03 09:00:36;;;;;;;1.40;1.30;;;24.50;48.80;;;;;;5066359;28;20405;-80
2021/06/03 09:03:03;;;;;;;1.70;1.60;;;24.50;48.80;;;;;;5066717;28;20402;-80
2021/06/03 09:05:32;;;;;;;2.13;1.73;;;24.50;48.80;;;;;;5048713;28;20481;-80
2021/06/03 09:08:14;;;;;;;1.80;1.70;;;24.50;48.80;;;;;;5066163;28;20934;-80
2021/06/03 09:10:40;;;;;;;2.10;1.60;;;24.50;48.90;;;;;;5065727;28;20443;-80
2021/06/03 09:13:06;;;;;;;2.13;1.50;;;24.50;48.90;;;;;;5065477;28;20402;-81
2021/06/03 09:15:31;;;;;;;2.10;1.83;;;24.50;48.90;;;;;;5065513;28;20491;-81
2021/06/03 09:17:57;;;;;;;2.87;1.67;;;24.50;48.90;;;;;;5048273;28;20198;-81
2021/06/03 09:20:25;;;;;;;1.83;1.40;;;24.50;48.90;;;;;;5066537;28;20401;-81
2021/06/03 09:22:53;;;;;;;1.70;1.20;;;24.50;48.80;;;;;;5048817;28;20175;-81
2021/06/03 09:29:32;;;;;;;1.70;1.53;;;24.50;48.80;;;;;;4927107;29;20500;-81
2021/06/03 09:32:11;;;;;;;1.73;1.63;;;24.50;48.90;;;;;;4912786;29;20455;-79
2021/06/03 09:35:14;;;;;;;1.60;1.40;;;24.50;48.90;;;;;;5008919;28;20413;-81
2021/06/03 09:37:42;;;;;;;2.03;1.17;;;24.50;48.80;;;;;;5047692;28;20453;-81
2021/06/03 09:40:36;;;;;;;1.77;1.60;;;24.50;48.80;;;;;;5055494;28;20410;-80
2021/06/03 09:43:11;;;;;;;2.33;1.37;;;24.40;48.80;;;;;;5056821;28;20417;-81
2021/06/03 09:46:01;;;;;;;1.60;1.27;;;24.50;48.80;;;;;;5056906;28;20409;-80
2021/06/03 09:48:49;;;;;;;1.40;1.27;;;24.60;48.90;;;;;;5056027;28;20485;-81
2021/06/03 09:51:25;;;;;;;1.50;1.20;;;24.60;48.90;;;;;;5074243;28;20381;-81
2021/06/03 09:57:17;;;;;;;1.90;1.50;;;24.60;49.50;;;;;;5067144;28;20518;-81
2021/06/03 10:00:11;;;;;;;2.23;1.90;;;24.60;48.90;;;;;;5058420;28;20487;-81
2021/06/03 10:02:39;;;;;;;1.70;1.40;;;24.60;48.90;;;;;;5076364;28;20463;-81
2021/06/03 10:05:20;;;;;;;2.00;1.40;;;24.60;48.90;;;;;;5058262;28;20416;-81
2021/06/03 10:08:18;;;;;;;1.60;1.50;;;24.60;48.90;;;;;;5057872;28;20413;-81
2021/06/03 10:11:36;;;;;;;2.87;1.87;;;24.60;48.90;;;;;;5047788;28;20504;-81
2021/06/03 10:14:20;;;;;;;1.70;1.60;;;24.60;48.90;;;;;;5058096;28;20436;-81
2021/06/03 10:16:52;;;;;;;1.70;1.47;;;24.60;48.90;;;;;;5055761;28;20457;-81
2021/06/03 10:19:34;;;;;;;1.77;1.57;;;24.60;48.90;;;;;;5074756;28;20408;-81
2021/06/03 10:22:25;;;;;;;1.43;1.30;;;24.60;48.90;;;;;;5058009;28;20422;-81
2021/06/03 10:25:11;;;;;;;2.50;1.60;;;24.70;49.00;;;;;;5058343;28;20409;-81
2021/06/03 10:27:54;;;;;;;2.00;1.13;;;24.70;49.00;;;;;;5075896;28;20481;-81
2021/06/03 10:33:59;;;;;;;1.50;1.30;;;24.70;49.00;;;;;;5052680;28;20401;-85
2021/06/03 10:36:35;;;;;;;3.73;1.77;;;24.60;48.90;;;;;;5035125;28;20775;-82
2021/06/03 10:39:16;;;;;;;2.73;1.70;;;24.70;48.90;;;;;;5056143;28;20402;-82
2021/06/03 10:42:11;;;;;;;2.63;1.60;;;24.60;48.80;;;;;;5038890;28;20425;-81
2021/06/03 10:44:38;;;;;;;2.00;1.90;;;24.70;48.90;;;;;;5056617;28;20413;-82
2021/06/03 10:47:06;;;;;;;3.10;1.70;;;24.60;48.80;;;;;;5038750;28;20461;-81
2021/06/03 10:49:38;;;;;;;3.60;2.40;;;24.60;48.80;;;;;;5038876;28;20402;-81
2021/06/03 10:52:09;;;;;;;2.03;1.50;;;24.70;49.40;;;;;;5038557;28;20448;-80
2021/06/03 10:54:40;;;;;;;3.33;1.77;;;24.70;48.80;;;;;;5022327;28;20576;-81
2021/06/03 10:57:17;;;;;;;1.80;1.70;;;24.70;48.80;;;;;;5038288;28;20469;-81
2021/06/03 10:59:50;;;;;;;2.10;1.80;;;24.70;48.80;;;;;;5048280;28;20402;-83
2021/06/03 11:03:04;;;;;;;3.90;2.30;;;24.70;48.80;;;;;;5032808;28;20434;-81
2021/06/03 11:05:41;;;;;;;3.30;2.93;;;24.70;48.80;;;;;;5036642;28;20472;-80
2021/06/03 11:08:36;;;;;;;6.93;4.90;;;24.60;48.70;;;;;;5034246;28;20406;-81
2021/06/03 11:11:14;;;;;;;9.00;7.37;;;24.70;48.70;;;;;;5034200;28;20888;-80
2021/06/03 11:13:46;;;;;;;12.33;9.37;;;24.60;48.70;;;;;;5050569;28;20418;-80
2021/06/03 11:16:48;;;;;;;12.03;10.50;;;24.70;48.80;;;;;;5034955;28;20454;-80
2021/06/03 11:19:28;;;;;;;19.27;11.80;;;24.60;48.70;;;;;;5039943;28;20468;-80
2021/06/03 11:22:06;;;;;;;16.30;11.83;;;24.60;48.70;;;;;;5033812;28;20406;-83
2021/06/03 11:24:35;;;;;;;19.00;13.33;;;24.60;48.70;;;;;;5031977;28;20437;-82
2021/06/03 11:27:07;;;;;;;21.30;13.20;;;24.60;48.70;;;;;;5031788;28;20426;-82
2021/06/03 11:29:54;;;;;;;17.47;12.37;;;24.60;48.70;;;;;;5033244;28;20434;-82
2021/06/03 11:32:24;;;;;;;20.10;13.43;;;24.60;48.70;;;;;;5050455;28;20911;-82
2021/06/03 11:34:57;;;;;;;16.33;14.23;;;24.60;48.70;;;;;;5033986;28;20418;-82
2021/06/03 11:37:45;;;;;;;20.53;14.47;;;24.70;48.80;;;;;;5050935;28;20445;-83
2021/06/03 11:47:02;;;;;;;19.17;13.77;;;24.60;48.70;;;;;;5049983;28;20398;-82
2021/06/03 11:49:46;;;;;;;18.07;13.27;;;24.60;48.70;;;;;;5049985;28;20391;-82
2021/06/03 11:52:18;;;;;;;16.27;12.30;;;24.70;48.80;;;;;;5032307;28;20418;-83
2021/06/03 11:55:00;;;;;;;19.63;12.50;;;24.60;48.70;;;;;;5049246;28;20905;-82
2021/06/03 11:57:28;;;;;;;15.43;12.40;;;24.60;48.60;;;;;;5031527;28;20462;-80
2021/06/03 12:00:05;;;;;;;15.20;12.33;;;24.60;48.70;;;;;;5049740;28;20415;-78
2021/06/03 12:02:35;;;;;;;19.90;12.13;;;24.60;48.70;;;;;;5032625;28;20411;-78
2021/06/03 12:05:10;;;;;;;21.63;12.60;;;24.60;48.60;;;;;;5033093;28;20411;-77
2021/06/03 12:14:31;;;;;;;16.10;11.03;;;24.60;48.60;;;;;;4980895;28;20429;-78
2021/06/03 12:17:09;;;;;;;14.17;10.37;;;24.60;48.70;;;;;;5049028;28;20477;-78
2021/06/03 12:19:53;;;;;;;13.43;10.20;;;24.60;48.60;;;;;;5052216;28;20398;-78
2021/06/03 12:22:26;;;;;;;13.80;10.30;;;24.60;48.60;;;;;;5050179;28;20434;-78
2021/06/03 12:24:58;;;;;;;14.93;11.20;;;24.60;48.60;;;;;;5051722;28;20466;-78
2021/06/03 12:27:24;;;;;;;12.90;10.40;;;24.60;48.60;;;;;;5052176;28;20449;-78
2021/06/03 12:29:51;;;;;;;11.87;9.50;;;24.60;48.60;;;;;;5034535;28;20419;-78
2021/06/03 12:32:18;;;;;;;11.40;10.17;;;24.60;48.50;;;;;;5034813;28;20176;-79
2021/06/03 12:34:44;;;;;;;14.10;10.10;;;24.60;48.50;;;;;;5031907;28;20411;-78
2021/06/03 12:37:29;;;;;;;14.47;10.47;;;24.70;48.60;;;;;;5032553;28;20450;-78
2021/06/03 12:39:59;;;;;;;12.57;9.20;;;24.70;48.60;;;;;;5032193;28;20425;-78
2021/06/03 12:42:30;;;;;;;12.07;10.30;;;24.60;48.50;;;;;;5050104;28;20422;-78
2021/06/03 12:44:57;;;;;;;12.00;9.57;;;24.70;48.60;;;;;;5049814;28;20417;-78
2021/06/03 12:47:34;;;;;;;10.63;8.50;;;24.60;48.50;;;;;;5032105;28;20418;-78
2021/06/03 12:50:17;;;;;;;12.47;8.90;;;24.70;48.50;;;;;;5032895;28;20441;-79
2021/06/03 12:52:46;;;;;;;11.77;8.20;;;24.60;48.40;;;;;;5032879;28;20418;-79
2021/06/03 12:55:13;;;;;;;8.67;7.67;;;24.60;48.50;;;;;;5031411;28;20422;-78
2021/06/03 12:57:41;;;;;;;9.83;7.57;;;24.60;48.50;;;;;;5049212;28;20450;-79
2021/06/03 13:00:19;;;;;;;12.50;9.27;;;24.60;48.40;;;;;;5048596;28;20415;-79
2021/06/03 13:02:48;;;;;;;10.93;8.00;;;24.70;48.50;;;;;;5015707;28;20530;-79
2021/06/03 13:05:17;;;;;;;16.90;8.27;;;24.70;48.50;;;;;;5047769;28;20414;-78
2021/06/03 13:07:46;;;;;;;9.60;8.63;;;24.60;48.40;;;;;;5049184;28;20806;-79
2021/06/03 13:10:21;;;;;;;9.17;7.47;;;24.60;48.40;;;;;;5031838;28;20432;-78
2021/06/03 13:12:53;;;;;;;10.70;8.60;;;24.70;48.40;;;;;;5049826;28;20410;-78
2021/06/03 13:15:20;;;;;;;12.20;8.70;;;24.60;48.40;;;;;;5032873;28;20525;-78
2021/06/03 13:18:19;;;;;;;9.70;8.47;;;24.60;48.40;;;;;;5032610;28;21006;-83
2021/06/03 13:20:56;;;;;;;8.10;7.00;;;24.70;48.40;;;;;;4977321;28;20485;-80
2021/06/03 13:23:32;;;;;;;8.00;7.20;;;24.70;48.40;;;;;;4978416;28;20419;-81
2021/06/03 13:26:16;;;;;;;7.77;6.60;;;24.70;48.40;;;;;;4978215;28;20448;-82
2021/06/03 13:28:45;;;;;;;8.77;7.23;;;24.70;48.40;;;;;;4995152;28;20397;-81
2021/06/03 13:31:20;;;;;;;7.50;6.73;;;24.60;48.40;;;;;;4994212;28;20405;-82
2021/06/03 13:33:46;;;;;;;7.00;6.30;;;24.70;48.50;;;;;;4995374;28;20397;-81
2021/06/03 13:36:13;;;;;;;9.07;8.20;;;24.60;48.40;;;;;;4978203;28;20429;-81
2021/06/03 13:38:54;;;;;;;7.20;6.07;;;24.60;48.40;;;;;;4995541;28;20413;-81
2021/06/03 13:41:25;;;;;;;6.47;5.87;;;24.70;48.40;;;;;;4978676;28;20444;-80
2021/06/03 13:44:06;;;;;;;7.60;5.73;;;24.60;48.90;;;;;;4978996;28;20892;-80
2021/06/03 13:46:32;;;;;;;8.07;6.17;;;24.70;48.40;;;;;;4979639;28;20452;-80
2021/06/03 13:49:00;;;;;;;7.47;5.97;;;24.70;48.40;;;;;;4979820;28;20405;-80